Time;durP1;ratioP1;P1;durP2;ratioP2;P2;SDS_P1;SDS_P2;PMS_P1;PMS_P2;Temp;Humidity;BMP_temperature;BMP_pressure;BME280_temperature;BME280_humidity;BME280_pressure;Samples;Min_cycle;Max_cycle;Signal;HPM_P1;HPM_P2
2023/05/13 00:00:44;;;;;;;23.80;20.67;;;;;;;-139.84;100.00;61778.28;5031641;28;20120;-71
2023/05/13 00:03:10;;;;;;;24.20;19.77;;;;;;;-139.84;100.00;61778.28;5046184;28;20375;-71
2023/05/13 00:05:36;;;;;;;26.00;18.77;;;;;;;-139.84;100.00;61778.28;5047814;28;20039;-72
2023/05/13 00:08:05;;;;;;;23.67;19.37;;;;;;;-139.84;100.00;61778.28;5032981;28;20131;-71
2023/05/13 00:10:34;;;;;;;24.30;19.80;;;;;;;-139.84;100.00;61778.28;5042591;28;20420;-72
2023/05/13 00:13:00;;;;;;;24.40;18.50;;;;;;;-139.84;100.00;61778.28;5047193;28;20031;-71
2023/05/13 00:15:26;;;;;;;23.60;18.35;;;;;;;-139.84;100.00;61778.28;5016456;28;20055;-71
2023/05/13 00:17:52;;;;;;;24.30;17.97;;;;;;;-139.84;100.00;61778.28;5051745;28;20033;-70
2023/05/13 00:20:17;;;;;;;23.07;18.20;;;;;;;-139.84;100.00;61778.28;5047274;28;20116;-71
2023/05/13 00:22:43;;;;;;;23.80;18.23;;;;;;;-139.84;100.00;61778.28;5027272;28;20080;-71
2023/05/13 00:25:09;;;;;;;22.63;17.97;;;;;;;-139.84;100.00;61778.28;5051909;28;20485;-71
2023/05/13 00:27:34;;;;;;;26.70;18.00;;;;;;;-139.84;100.00;61778.28;5026559;28;20033;-71
2023/05/13 00:30:00;;;;;;;20.17;17.93;;;;;;;-139.84;100.00;61778.28;5047324;28;20136;-71
2023/05/13 00:32:25;;;;;;;25.93;17.47;;;;;;;-139.84;100.00;61778.28;5045448;28;20559;-71
2023/05/13 00:34:51;;;;;;;26.87;16.90;;;;;;;-139.84;100.00;61778.28;5044436;28;20480;-71
2023/05/13 00:37:16;;;;;;;26.13;17.73;;;;;;;-139.84;100.00;61778.28;5041087;28;20025;-71
2023/05/13 00:39:42;;;;;;;22.87;16.73;;;;;;;-139.84;100.00;61778.28;5047740;28;20025;-70
2023/05/13 00:42:10;;;;;;;20.00;17.33;;;;;;;-139.84;100.00;61778.28;5042539;28;20033;-71
2023/05/13 00:44:35;;;;;;;25.55;15.75;;;;;;;-139.84;100.00;61778.28;5026600;28;20393;-72
2023/05/13 00:47:04;;;;;;;24.40;17.83;;;;;;;-139.84;100.00;61778.28;5047094;28;20044;-71
2023/05/13 00:49:30;;;;;;;28.20;16.05;;;;;;;-139.84;100.00;61778.28;5034497;28;20025;-72
2023/05/13 00:51:56;;;;;;;23.13;16.42;;;;;;;-139.84;100.00;61778.28;5016803;28;20029;-71
2023/05/13 00:54:21;;;;;;;20.00;16.00;;;;;;;-139.84;100.00;61778.28;5044678;28;20040;-71
2023/05/13 00:56:47;;;;;;;27.10;15.10;;;;;;;-139.84;100.00;61778.28;5032688;28;20127;-71
2023/05/13 00:59:12;;;;;;;18.30;14.33;;;;;;;-139.84;100.00;61778.28;5032571;28;20065;-71
2023/05/13 01:01:51;;;;;;;21.03;14.73;;;;;;;-139.84;100.00;61778.28;5034040;28;20423;-71
2023/05/13 01:04:31;;;;;;;18.23;15.00;;;;;;;-139.84;100.00;61778.28;5043728;28;20532;-72
2023/05/13 01:07:12;;;;;;;18.67;13.70;;;;;;;-139.84;100.00;61778.28;5042755;28;20166;-72
2023/05/13 01:09:40;;;;;;;20.73;14.15;;;;;;;-139.84;100.00;61778.28;5044325;28;20029;-72
2023/05/13 01:12:15;;;;;;;18.75;13.90;;;;;;;-139.84;100.00;61778.28;5047060;28;20056;-71
2023/05/13 01:14:47;;;;;;;19.27;13.98;;;;;;;-139.84;100.00;61778.28;5048989;28;20037;-71
2023/05/13 01:17:23;;;;;;;22.45;12.77;;;;;;;-139.84;100.00;61778.28;5045661;28;20038;-71
2023/05/13 01:19:54;;;;;;;22.50;12.50;;;;;;;-139.84;100.00;61778.28;5047145;28;20045;-71
2023/05/13 01:22:19;;;;;;;17.75;12.02;;;;;;;-139.84;100.00;61778.28;5032454;28;20034;-71
2023/05/13 01:24:45;;;;;;;18.13;11.53;;;;;;;-139.84;100.00;61778.28;5031674;28;20036;-71
2023/05/13 01:27:12;;;;;;;18.03;11.67;;;;;;;-139.84;100.00;61778.28;5048557;28;20032;-71
2023/05/13 01:29:39;;;;;;;16.42;11.55;;;;;;;-139.84;100.00;61778.28;5027989;28;20144;-72
2023/05/13 01:32:08;;;;;;;20.10;11.23;;;;;;;-139.84;100.00;61778.28;5049842;28;20085;-72
2023/05/13 01:34:35;;;;;;;13.68;10.68;;;;;;;-139.84;100.00;61778.28;5034218;28;20094;-72
2023/05/13 01:37:00;;;;;;;;;;;;;;;-139.84;100.00;61778.28;5045129;28;20056;-71
2023/05/13 01:39:27;;;;;;;16.08;11.23;;;;;;;-139.84;100.00;61778.28;5042848;28;20442;-71
2023/05/13 01:41:52;;;;;;;11.23;9.73;;;;;;;-139.84;100.00;61778.28;5044668;28;20025;-71
2023/05/13 01:44:18;;;;;;;13.43;10.07;;;;;;;-139.84;100.00;61778.28;5045762;28;20105;-71
2023/05/13 01:46:44;;;;;;;10.67;9.57;;;;;;;-139.84;100.00;61778.28;5049253;28;20472;-71
2023/05/13 01:49:09;;;;;;;11.93;10.13;;;;;;;-139.84;100.00;61778.28;5042805;28;20037;-71
2023/05/13 01:51:36;;;;;;;17.13;10.50;;;;;;;-139.84;100.00;61778.28;5044039;28;20485;-71
2023/05/13 01:54:02;;;;;;;12.80;9.00;;;;;;;-139.84;100.00;61778.28;5044163;28;20541;-71
2023/05/13 01:56:28;;;;;;;12.07;8.93;;;;;;;-139.84;100.00;61778.28;5046565;28;20044;-71
2023/05/13 01:58:55;;;;;;;12.30;8.93;;;;;;;-139.84;100.00;61778.28;5048244;28;20503;-71
2023/05/13 02:01:20;;;;;;;16.95;8.93;;;;;;;-139.84;100.00;61778.28;5031904;28;20722;-71
2023/05/13 02:03:45;;;;;;;15.50;8.07;;;;;;;-139.84;100.00;61778.28;5042966;28;20182;-71
2023/05/13 02:06:11;;;;;;;12.70;9.20;;;;;;;-139.84;100.00;61778.28;5043641;28;20127;-71
2023/05/13 02:08:36;;;;;;;9.77;8.73;;;;;;;-139.84;100.00;61778.28;5037310;28;20033;-71
2023/05/13 02:11:02;;;;;;;13.30;7.57;;;;;;;-139.84;100.00;61778.28;5030552;28;20048;-72
2023/05/13 02:13:27;;;;;;;11.03;8.87;;;;;;;-139.84;100.00;61778.28;5025200;28;20064;-71
2023/05/13 02:15:53;;;;;;;10.37;7.97;;;;;;;-139.84;100.00;61778.28;5051442;28;20492;-70
2023/05/13 02:18:19;;;;;;;11.75;8.05;;;;;;;-139.84;100.00;61778.28;5028184;28;20025;-71
2023/05/13 02:20:45;;;;;;;10.40;8.03;;;;;;;-139.84;100.00;61778.28;5031154;28;20038;-71
2023/05/13 02:23:10;;;;;;;11.00;7.73;;;;;;;-139.84;100.00;61778.28;5042872;28;20358;-71
2023/05/13 02:25:37;;;;;;;13.97;8.23;;;;;;;-139.84;100.00;61778.28;5044905;28;20032;-71
2023/05/13 02:28:02;;;;;;;17.55;7.95;;;;;;;-139.84;100.00;61778.28;5044918;28;20028;-71
2023/05/13 02:30:28;;;;;;;14.67;7.60;;;;;;;-139.84;100.00;61778.28;5040182;28;20052;-71
2023/05/13 02:32:55;;;;;;;10.60;7.30;;;;;;;-139.84;100.00;61778.28;5025147;28;20357;-71
2023/05/13 02:35:21;;;;;;;;;;;;;;;-139.84;100.00;61778.28;5041908;28;20354;-72
2023/05/13 02:37:47;;;;;;;8.25;7.13;;;;;;;-139.84;100.00;61778.28;5044043;28;19982;-73
2023/05/13 02:40:12;;;;;;;13.43;7.97;;;;;;;-139.84;100.00;61778.28;5044638;28;20037;-70
2023/05/13 02:42:42;;;;;;;13.13;8.00;;;;;;;-139.84;100.00;61778.28;5045346;28;20024;-70
2023/05/13 02:45:09;;;;;;;11.45;8.23;;;;;;;-139.84;100.00;61778.28;5030348;28;20025;-73
2023/05/13 02:47:35;;;;;;;9.98;7.82;;;;;;;-139.84;100.00;61778.28;5042280;28;20032;-73
2023/05/13 02:50:00;;;;;;;28.63;11.40;;;;;;;-139.84;100.00;61778.28;5044462;28;20032;-73
2023/05/13 02:52:25;;;;;;;14.47;9.13;;;;;;;-139.84;100.00;61778.28;5038195;28;20476;-73
2023/05/13 02:54:51;;;;;;;11.40;8.50;;;;;;;-139.84;100.00;61778.28;5044314;28;20033;-73
2023/05/13 02:57:16;;;;;;;13.27;8.53;;;;;;;-139.84;100.00;61778.28;5022880;28;20075;-73
2023/05/13 02:59:42;;;;;;;19.10;9.00;;;;;;;-139.84;100.00;61778.28;5026291;28;20036;-73
2023/05/13 03:02:07;;;;;;;17.93;8.97;;;;;;;-139.84;100.00;61778.28;5041951;28;20499;-74
2023/05/13 03:04:33;;;;;;;11.97;9.30;;;;;;;-139.84;100.00;61778.28;5045560;28;20090;-72
2023/05/13 03:06:58;;;;;;;15.00;8.73;;;;;;;-139.84;100.00;61778.28;5028233;28;20057;-73
2023/05/13 03:09:25;;;;;;;13.03;8.97;;;;;;;-139.84;100.00;61778.28;5025406;28;20033;-73
2023/05/13 03:11:50;;;;;;;10.13;8.15;;;;;;;-139.84;100.00;61778.28;5044086;28;20064;-73
2023/05/13 03:14:16;;;;;;;15.37;9.00;;;;;;;-139.84;100.00;61778.28;5046208;28;20060;-72
2023/05/13 03:16:41;;;;;;;13.67;8.93;;;;;;;-139.84;100.00;61778.28;5039004;28;20467;-72
2023/05/13 03:19:07;;;;;;;20.40;9.93;;;;;;;-139.84;100.00;61778.28;5026142;28;20546;-72
2023/05/13 03:21:32;;;;;;;13.10;8.70;;;;;;;-139.84;100.00;61778.28;5039445;28;20478;-73
2023/05/13 03:23:58;;;;;;;12.43;8.40;;;;;;;-139.84;100.00;61778.28;5044371;28;20053;-72
2023/05/13 03:26:23;;;;;;;17.53;9.63;;;;;;;-139.84;100.00;61778.28;5030096;28;20032;-72
2023/05/13 03:28:49;;;;;;;15.07;8.20;;;;;;;-139.84;100.00;61778.28;5047748;28;20025;-72
2023/05/13 03:31:14;;;;;;;11.77;8.20;;;;;;;-139.84;100.00;61778.28;5028779;28;20025;-72
2023/05/13 03:33:40;;;;;;;13.57;8.47;;;;;;;-139.84;100.00;61778.28;5044253;28;20064;-72
2023/05/13 03:36:08;;;;;;;13.57;9.10;;;;;;;-139.84;100.00;61778.28;5027376;28;20115;-73
2023/05/13 03:38:34;;;;;;;17.30;8.93;;;;;;;-139.84;100.00;61778.28;5040868;28;20025;-72
2023/05/13 03:40:59;;;;;;;11.27;7.50;;;;;;;-139.84;100.00;61778.28;5029373;28;20040;-73
2023/05/13 03:43:25;;;;;;;18.10;8.03;;;;;;;-139.84;100.00;61778.28;5042510;28;20409;-73
2023/05/13 03:45:54;;;;;;;10.67;8.73;;;;;;;-139.84;100.00;61778.28;5045058;28;20477;-74
2023/05/13 03:48:20;;;;;;;16.27;8.70;;;;;;;-139.84;100.00;61778.28;5044708;28;20427;-72
2023/05/13 03:50:45;;;;;;;12.60;9.13;;;;;;;-139.84;100.00;61778.28;5029928;28;20029;-72
2023/05/13 03:53:11;;;;;;;9.53;8.53;;;;;;;-139.84;100.00;61778.28;5045661;28;20476;-72
2023/05/13 03:55:36;;;;;;;14.37;8.27;;;;;;;-139.84;100.00;61778.28;5039392;28;20029;-72
2023/05/13 03:58:14;;;;;;;13.90;8.23;;;;;;;-139.84;100.00;61778.28;5048252;28;20074;-73
2023/05/13 04:00:41;;;;;;;15.40;9.10;;;;;;;-139.84;100.00;61778.28;5042835;28;20083;-72
2023/05/13 04:03:07;;;;;;;17.65;8.75;;;;;;;-139.84;100.00;61778.28;5047106;28;20049;-72
2023/05/13 04:05:32;;;;;;;15.60;8.80;;;;;;;-139.84;100.00;61778.28;5025999;28;20141;-72
2023/05/13 04:07:58;;;;;;;17.53;9.57;;;;;;;-139.84;100.00;61778.28;5050163;28;20031;-73
2023/05/13 04:10:24;;;;;;;13.50;9.63;;;;;;;-139.84;100.00;61778.28;5049577;28;20025;-72
2023/05/13 04:12:49;;;;;;;12.47;9.53;;;;;;;-139.84;100.00;61778.28;5030720;28;20393;-72
2023/05/13 04:15:16;;;;;;;12.87;10.60;;;;;;;-139.84;100.00;61778.28;5046989;28;20025;-73
2023/05/13 04:17:41;;;;;;;18.35;9.57;;;;;;;-139.84;100.00;61778.28;5057250;28;20488;-74
2023/05/13 04:20:07;;;;;;;19.20;9.97;;;;;;;-139.84;100.00;61778.28;5048086;28;20079;-74
2023/05/13 04:22:34;;;;;;;14.43;9.87;;;;;;;-139.84;100.00;61778.28;5048161;28;20132;-72
2023/05/13 04:25:00;;;;;;;15.30;10.20;;;;;;;-139.84;100.00;61778.28;5030646;28;20156;-73
2023/05/13 04:27:25;;;;;;;13.40;10.10;;;;;;;-139.84;100.00;61778.28;5044354;28;20140;-72
2023/05/13 04:29:51;;;;;;;16.03;10.73;;;;;;;-139.84;100.00;61778.28;5048075;28;20444;-72
2023/05/13 04:32:20;;;;;;;19.57;10.50;;;;;;;-139.84;100.00;61778.28;5032727;28;20032;-73
2023/05/13 04:34:50;;;;;;;14.48;10.77;;;;;;;-139.84;100.00;61778.28;5046801;28;20625;-73
2023/05/13 04:37:16;;;;;;;15.48;10.55;;;;;;;-139.84;100.00;61778.28;5028158;28;20408;-73
2023/05/13 04:39:45;;;;;;;18.80;11.37;;;;;;;-139.84;100.00;61778.28;5028724;28;20025;-72
2023/05/13 04:42:11;;;;;;;11.90;10.65;;;;;;;-139.84;100.00;61778.28;5048591;28;20435;-74
2023/05/13 04:44:37;;;;;;;13.05;11.50;;;;;;;-139.84;100.00;61778.28;5051397;28;20058;-74
2023/05/13 04:47:03;;;;;;;12.67;9.93;;;;;;;-139.84;100.00;61778.28;5049827;28;20451;-74
2023/05/13 04:49:28;;;;;;;13.20;10.97;;;;;;;-139.84;100.00;61778.28;5030912;28;20032;-73
2023/05/13 04:51:53;;;;;;;16.37;10.60;;;;;;;-139.84;100.00;61778.28;5044547;28;20052;-74
2023/05/13 04:54:19;;;;;;;12.47;10.27;;;;;;;-139.84;100.00;61778.28;5050493;28;20029;-73
2023/05/13 04:56:44;;;;;;;15.47;11.20;;;;;;;-139.84;100.00;61778.28;5042295;28;20026;-72
2023/05/13 04:59:10;;;;;;;20.40;11.53;;;;;;;-139.84;100.00;61778.28;5046337;28;20039;-73
2023/05/13 05:01:35;;;;;;;22.90;11.23;;;;;;;-139.84;100.00;61778.28;5039686;28;20028;-75
2023/05/13 05:04:01;;;;;;;20.17;11.97;;;;;;;-139.84;100.00;61778.28;5028555;28;20555;-73
2023/05/13 05:06:27;;;;;;;18.20;11.43;;;;;;;-139.84;100.00;61778.28;5046960;28;20114;-74
2023/05/13 05:08:52;;;;;;;15.40;12.13;;;;;;;-139.84;100.00;61778.28;5049191;28;20037;-73
2023/05/13 05:11:18;;;;;;;17.50;11.50;;;;;;;-139.84;100.00;61778.28;5047157;28;20017;-73
2023/05/13 05:13:43;;;;;;;13.00;11.17;;;;;;;-139.84;100.00;61778.28;5028690;28;20025;-73
2023/05/13 05:16:09;;;;;;;18.27;11.27;;;;;;;-139.84;100.00;61778.28;5048462;28;20491;-73
2023/05/13 05:18:39;;;;;;;17.97;11.20;;;;;;;-139.84;100.00;61778.28;5047662;28;20477;-73
2023/05/13 05:21:05;;;;;;;14.98;11.20;;;;;;;-139.84;100.00;61778.28;5039369;28;20070;-73
2023/05/13 05:23:31;;;;;;;21.83;12.17;;;;;;;-139.84;100.00;61778.28;5046461;28;20503;-73
2023/05/13 05:25:58;;;;;;;12.20;10.97;;;;;;;-139.84;100.00;61778.28;5045612;28;20029;-73
2023/05/13 05:28:24;;;;;;;25.08;11.40;;;;;;;-139.84;100.00;61778.28;5048246;28;20494;-73
2023/05/13 05:30:50;;;;;;;15.20;10.80;;;;;;;-139.84;100.00;61778.28;5044494;28;20040;-73
2023/05/13 05:33:17;;;;;;;17.90;11.07;;;;;;;-139.84;100.00;61778.28;5027978;28;20029;-73
2023/05/13 05:35:42;;;;;;;17.35;10.90;;;;;;;-139.84;100.00;61778.28;5046282;28;20166;-73
2023/05/13 05:38:08;;;;;;;17.40;11.33;;;;;;;-139.84;100.00;61778.28;5046812;28;20120;-72
2023/05/13 05:40:42;;;;;;;14.17;11.10;;;;;;;-139.84;100.00;61778.28;5042464;28;20036;-72
2023/05/13 05:43:11;;;;;;;20.67;11.68;;;;;;;-139.84;100.00;61778.28;5026913;28;20059;-72
2023/05/13 05:45:38;;;;;;;17.50;11.82;;;;;;;-139.84;100.00;61778.28;5047024;28;20024;-72
2023/05/13 05:48:05;;;;;;;19.93;11.20;;;;;;;-139.84;100.00;61778.28;5040662;28;20029;-73
2023/05/13 05:50:31;;;;;;;22.00;12.32;;;;;;;-139.84;100.00;61778.28;5043859;28;20396;-73
2023/05/13 05:52:58;;;;;;;16.38;12.00;;;;;;;-139.84;100.00;61778.28;5046401;28;20095;-74
2023/05/13 05:55:23;;;;;;;15.30;11.55;;;;;;;-139.84;100.00;61778.28;5042795;28;20523;-73
2023/05/13 05:57:49;;;;;;;14.53;11.10;;;;;;;-139.84;100.00;61778.28;5046722;28;20028;-73
2023/05/13 06:00:15;;;;;;;17.37;11.23;;;;;;;-139.84;100.00;61778.28;5042097;28;20047;-73
2023/05/13 06:02:40;;;;;;;13.87;10.40;;;;;;;-139.84;100.00;61778.28;5050068;28;20105;-73
2023/05/13 06:05:07;;;;;;;12.80;9.50;;;;;;;-139.84;100.00;61778.28;5040978;28;20033;-73
2023/05/13 06:07:32;;;;;;;16.98;10.07;;;;;;;-139.84;100.00;61778.28;5047856;28;20455;-73
2023/05/13 06:09:58;;;;;;;15.63;9.63;;;;;;;-139.84;100.00;61778.28;5030085;28;20117;-74
2023/05/13 06:12:23;;;;;;;20.17;10.63;;;;;;;-139.84;100.00;61778.28;5045299;28;20036;-73
2023/05/13 06:14:49;;;;;;;13.70;10.03;;;;;;;-139.84;100.00;61778.28;5028321;28;20127;-73
2023/05/13 06:17:14;;;;;;;12.10;9.13;;;;;;;-139.84;100.00;61778.28;5047814;28;20036;-73
2023/05/13 06:19:43;;;;;;;18.13;8.63;;;;;;;-139.84;100.00;61778.28;5045804;28;20437;-74
2023/05/13 06:22:10;;;;;;;12.32;8.70;;;;;;;-139.84;100.00;61778.28;5054137;28;20044;-73
2023/05/13 06:24:36;;;;;;;11.25;9.10;;;;;;;-139.84;100.00;61778.28;5040869;28;20550;-74
2023/05/13 06:27:01;;;;;;;13.93;8.52;;;;;;;-139.84;100.00;61778.28;5044764;28;20451;-72
2023/05/13 06:29:27;;;;;;;13.90;8.80;;;;;;;-139.84;100.00;61778.28;5042997;28;20056;-72
2023/05/13 06:31:52;;;;;;;12.57;8.20;;;;;;;-139.84;100.00;61778.28;5042500;28;20108;-73
2023/05/13 06:34:18;;;;;;;12.13;8.57;;;;;;;-139.84;100.00;61778.28;5045445;28;20317;-73
2023/05/13 06:36:44;;;;;;;10.70;8.33;;;;;;;-139.84;100.00;61778.28;5043862;28;20024;-72
2023/05/13 06:39:10;;;;;;;11.97;7.77;;;;;;;-139.84;100.00;61778.28;5043931;28;20028;-72
2023/05/13 06:41:36;;;;;;;;;;;;;;;-139.84;100.00;61778.28;5039910;28;20787;-72
2023/05/13 06:44:01;;;;;;;11.48;8.45;;;;;;;-139.84;100.00;61778.28;5043610;28;19952;-72
2023/05/13 06:46:26;;;;;;;15.50;8.30;;;;;;;-139.84;100.00;61778.28;5035812;28;20033;-72
2023/05/13 06:49:24;;;;;;;12.57;9.38;;;;;;;19.10;69.96;102245.50;5096266;27;20891;-74
2023/05/13 06:51:50;;;;;;;13.30;9.07;;;;;;;19.71;69.29;102243.97;5083336;28;20036;-74
2023/05/13 06:54:15;;;;;;;14.23;8.53;;;;;;;20.08;69.98;102253.38;5080861;28;20486;-74
2023/05/13 06:56:41;;;;;;;14.77;8.00;;;;;;;19.78;68.67;102252.25;5084472;28;20036;-74
2023/05/13 06:59:06;;;;;;;13.03;7.90;;;;;;;20.09;67.29;102249.50;5092699;28;20025;-74
2023/05/13 07:01:32;;;;;;;16.67;8.57;;;;;;;20.26;66.79;102253.44;5083257;28;20323;-74
2023/05/13 07:03:57;;;;;;;11.07;7.63;;;;;;;19.81;67.67;102244.34;5073866;28;20028;-74
2023/05/13 07:06:23;;;;;;;11.97;7.87;;;;;;;20.03;65.90;102253.16;5098112;28;20383;-74
2023/05/13 07:08:48;;;;;;;11.80;8.43;;;;;;;19.77;66.30;102245.00;5085293;28;20044;-72
2023/05/13 07:11:13;;;;;;;19.13;8.43;;;;;;;19.83;67.23;102250.53;5087704;28;20044;-72
2023/05/13 07:13:39;;;;;;;11.27;8.27;;;;;;;19.61;67.56;102246.38;5068024;28;20569;-72
2023/05/13 07:16:04;;;;;;;14.43;8.33;;;;;;;19.27;68.10;102251.47;5083735;28;20050;-72
2023/05/13 07:18:30;;;;;;;16.30;8.03;;;;;;;18.80;69.39;102249.00;5079562;28;20103;-72
2023/05/13 07:20:55;;;;;;;22.10;8.63;;;;;;;19.08;68.97;102244.00;5067950;28;20063;-73
2023/05/13 07:23:22;;;;;;;21.37;8.47;;;;;;;19.29;68.80;102246.53;5067807;28;20115;-72
2023/05/13 07:25:48;;;;;;;12.55;8.60;;;;;;;19.42;70.77;102246.50;5078281;28;20035;-73
2023/05/13 07:28:14;;;;;;;;;;;;;;;19.74;68.84;102248.25;5079930;28;20040;-72
2023/05/13 07:30:40;;;;;;;10.43;7.65;;;;;;;20.11;68.51;102255.72;5080396;28;20011;-73
2023/05/13 07:33:05;;;;;;;10.77;8.35;;;;;;;19.58;67.80;102248.75;5078229;28;20542;-74
2023/05/13 07:35:31;;;;;;;14.23;8.47;;;;;;;19.63;69.06;102251.72;5084417;28;20040;-73
2023/05/13 07:37:57;;;;;;;13.63;9.00;;;;;;;19.66;70.03;102249.34;5080352;28;20103;-73
2023/05/13 07:40:22;;;;;;;17.63;8.80;;;;;;;19.54;69.55;102253.06;5060429;28;20036;-73
2023/05/13 07:42:48;;;;;;;14.33;8.87;;;;;;;18.97;71.38;102242.78;5082050;28;20024;-73
2023/05/13 07:45:13;;;;;;;17.57;10.23;;;;;;;19.18;71.32;102247.19;5062150;28;20036;-73
2023/05/13 07:47:39;;;;;;;14.70;8.60;;;;;;;18.89;73.52;102247.72;5077413;28;20051;-73
2023/05/13 07:50:05;;;;;;;17.87;9.10;;;;;;;18.76;73.48;102245.81;5079050;28;20036;-72
2023/05/13 07:52:31;;;;;;;14.85;9.50;;;;;;;19.35;72.05;102251.19;5059917;28;20592;-72
2023/05/13 07:54:56;;;;;;;11.35;8.55;;;;;;;19.67;71.72;102244.63;5077846;28;20032;-73
2023/05/13 07:57:22;;;;;;;14.03;9.07;;;;;;;19.63;70.62;102237.81;5059967;28;20081;-72
2023/05/13 07:59:47;;;;;;;15.27;9.60;;;;;;;19.45;71.31;102246.03;5051618;28;20025;-72
2023/05/13 08:02:13;;;;;;;13.90;8.77;;;;;;;19.65;72.12;102252.34;5057710;28;20036;-72
2023/05/13 08:04:38;;;;;;;14.50;9.10;;;;;;;19.53;71.22;102254.13;5063222;28;20024;-72
2023/05/13 08:07:04;;;;;;;15.80;8.37;;;;;;;19.40;71.99;102249.47;5061035;28;20033;-72
2023/05/13 08:09:29;;;;;;;14.27;8.57;;;;;;;19.33;71.01;102250.59;5061649;28;20036;-72
2023/05/13 08:11:55;;;;;;;15.03;8.20;;;;;;;19.21;74.00;102246.75;5086703;28;20028;-73
2023/05/13 08:14:21;;;;;;;13.03;9.03;;;;;;;19.20;72.43;102247.84;5079094;28;20028;-72
2023/05/13 08:16:47;;;;;;;13.27;9.00;;;;;;;19.05;71.74;102255.59;5061687;28;20423;-72
2023/05/13 08:19:13;;;;;;;9.50;8.40;;;;;;;19.29;72.10;102257.66;5047847;28;20381;-73
2023/05/13 08:21:39;;;;;;;13.13;8.50;;;;;;;19.62;72.37;102247.22;5067404;28;20269;-72
2023/05/13 08:24:05;;;;;;;15.57;9.30;;;;;;;19.40;70.48;102246.69;5069284;28;20032;-72
2023/05/13 08:26:30;;;;;;;13.50;8.48;;;;;;;19.46;70.35;102250.50;5064393;28;20145;-73
2023/05/13 08:28:56;;;;;;;11.57;7.60;;;;;;;19.60;69.30;102257.72;5066108;28;20119;-72
2023/05/13 08:31:23;;;;;;;15.80;8.50;;;;;;;19.52;68.06;102252.44;5048682;28;20032;-73
2023/05/13 08:33:50;;;;;;;14.63;7.80;;;;;;;19.72;67.49;102254.00;5052529;28;20288;-73
2023/05/13 08:36:16;;;;;;;;;;;;;;;19.81;66.40;102257.38;5066685;28;20040;-73
2023/05/13 08:38:42;;;;;;;16.00;8.15;;;;;;;20.07;67.18;102257.25;5063767;28;19925;-72
2023/05/13 08:41:11;;;;;;;10.20;7.35;;;;;;;20.12;66.57;102255.47;5063294;28;20032;-72
2023/05/13 08:43:37;;;;;;;13.68;7.93;;;;;;;20.18;65.39;102259.31;5055336;28;20049;-73
2023/05/13 08:46:03;;;;;;;10.00;7.53;;;;;;;19.75;63.50;102261.06;5059603;28;20028;-73
2023/05/13 08:48:29;;;;;;;14.25;7.43;;;;;;;19.90;65.00;102261.63;5066244;28;20378;-72
2023/05/13 08:50:56;;;;;;;10.65;7.53;;;;;;;19.96;63.42;102256.00;5064190;28;20086;-74
2023/05/13 08:53:25;;;;;;;10.30;6.85;;;;;;;20.02;64.09;102259.81;5072154;28;20112;-72
2023/05/13 08:55:51;;;;;;;17.05;7.80;;;;;;;19.80;65.28;102261.25;5049026;28;20108;-72
2023/05/13 08:58:16;;;;;;;9.90;8.07;;;;;;;19.77;65.39;102261.69;5041489;28;20056;-72
2023/05/13 09:00:42;;;;;;;16.47;8.13;;;;;;;19.99;65.85;102265.81;5052886;28;20109;-72
2023/05/13 09:03:07;;;;;;;10.63;7.80;;;;;;;19.71;67.21;102257.88;5060877;28;20025;-71
2023/05/13 09:05:35;;;;;;;12.80;7.77;;;;;;;20.18;66.34;102264.88;5062251;28;20407;-71
2023/05/13 09:08:09;;;;;;;20.20;8.57;;;;;;;20.05;65.09;102253.78;5067927;28;20166;-71
2023/05/13 09:10:38;;;;;;;12.25;8.20;;;;;;;20.03;65.87;102247.59;5060547;28;20043;-72
2023/05/13 09:13:04;;;;;;;16.98;7.72;;;;;;;20.35;65.96;102255.75;5045929;28;20033;-73
2023/05/13 09:15:30;;;;;;;14.00;8.27;;;;;;;20.49;65.65;102248.94;5067523;28;20040;-72
2023/05/13 09:18:03;;;;;;;16.63;8.90;;;;;;;20.40;64.74;102249.47;5067377;28;20020;-72
2023/05/13 09:20:29;;;;;;;17.92;8.40;;;;;;;20.60;65.94;102250.16;5062610;28;20032;-73
2023/05/13 09:23:14;;;;;;;18.15;8.65;;;;;;;20.71;63.96;102249.41;5047243;28;20085;-72
2023/05/13 09:25:40;;;;;;;15.43;8.02;;;;;;;20.82;64.56;102245.84;5065956;28;20037;-73
2023/05/13 09:28:06;;;;;;;12.93;8.10;;;;;;;20.94;65.03;102252.41;5066451;28;20375;-73
2023/05/13 09:30:40;;;;;;;10.98;7.55;;;;;;;21.31;63.90;102245.75;5064200;28;20033;-72
2023/05/13 09:33:13;;;;;;;13.77;7.88;;;;;;;21.13;63.08;102248.53;5066269;28;20036;-71
2023/05/13 09:35:44;;;;;;;13.65;7.57;;;;;;;21.34;63.30;102248.91;5061849;28;20554;-73
2023/05/13 09:38:17;;;;;;;16.05;7.95;;;;;;;21.36;61.88;102257.03;5067091;28;20376;-72
2023/05/13 09:40:57;;;;;;;21.52;7.75;;;;;;;21.10;62.36;102249.00;5047925;28;20077;-72
2023/05/13 09:43:27;;;;;;;16.33;8.20;;;;;;;21.10;61.97;102258.22;5065335;28;20033;-73
2023/05/13 09:45:54;;;;;;;12.85;7.43;;;;;;;21.12;61.71;102249.63;5061195;28;20035;-72
2023/05/13 09:48:21;;;;;;;;;;;;;;;20.92;62.13;102258.19;5062282;28;20040;-73
2023/05/13 09:50:48;;;;;;;14.07;7.53;;;;;;;21.03;62.46;102248.22;5061187;28;19912;-72
2023/05/13 09:53:14;;;;;;;13.70;8.77;;;;;;;21.13;62.30;102251.34;5047894;28;20485;-72
2023/05/13 09:55:45;;;;;;;17.07;8.03;;;;;;;21.01;61.14;102256.81;5044045;28;20051;-71
2023/05/13 09:58:11;;;;;;;13.07;6.93;;;;;;;21.29;60.77;102245.97;5060915;28;20021;-71
2023/05/13 10:00:39;;;;;;;11.93;7.80;;;;;;;21.26;61.23;102251.16;5065312;28;20482;-73
2023/05/13 10:03:04;;;;;;;13.70;7.57;;;;;;;21.19;60.46;102250.41;5063428;28;20028;-71
2023/05/13 10:05:32;;;;;;;12.73;6.97;;;;;;;21.70;60.21;102240.50;5064217;28;20480;-73
2023/05/13 10:07:59;;;;;;;10.20;7.90;;;;;;;22.10;57.91;102243.56;5064591;28;20497;-72
2023/05/13 10:10:25;;;;;;;12.05;6.40;;;;;;;22.02;56.52;102243.88;5065385;28;20059;-72
2023/05/13 10:12:51;;;;;;;10.43;6.32;;;;;;;21.96;57.32;102245.72;5061232;28;20033;-72
2023/05/13 10:15:18;;;;;;;15.60;7.18;;;;;;;21.58;57.13;102239.59;5062128;28;20036;-72
2023/05/13 10:17:45;;;;;;;13.52;6.75;;;;;;;21.68;58.36;102241.84;5066071;28;20111;-72
2023/05/13 10:20:11;;;;;;;12.05;7.00;;;;;;;21.57;56.87;102237.03;5060627;28;20044;-73
2023/05/13 10:22:37;;;;;;;11.32;6.53;;;;;;;21.92;55.35;102238.91;5065982;28;20250;-72
2023/05/13 10:25:04;;;;;;;15.05;6.80;;;;;;;22.08;55.18;102231.78;5058867;28;20043;-72
2023/05/13 10:27:31;;;;;;;15.43;6.25;;;;;;;22.07;54.54;102241.22;5050758;28;20069;-72
2023/05/13 10:29:58;;;;;;;12.80;6.35;;;;;;;22.05;54.76;102229.47;5061315;28;20033;-72
2023/05/13 10:32:25;;;;;;;9.63;5.80;;;;;;;22.35;54.90;102233.88;5045796;28;20032;-72
2023/05/13 10:34:57;;;;;;;11.30;5.68;;;;;;;22.28;54.28;102227.56;5069056;28;20510;-72
2023/05/13 10:37:51;;;;;;;11.85;6.50;;;;;;;23.06;54.53;102228.09;5068536;28;20032;-72
2023/05/13 10:40:31;;;;;;;14.75;6.80;;;;;;;22.46;54.20;102232.25;5066491;28;20024;-72
2023/05/13 10:43:11;;;;;;;8.55;6.45;;;;;;;22.44;53.76;102226.03;5063761;28;20464;-72
2023/05/13 10:45:37;;;;;;;11.57;6.50;;;;;;;22.88;54.71;102217.06;5062107;28;20391;-72
2023/05/13 10:48:07;;;;;;;8.80;5.90;;;;;;;22.81;54.76;102224.69;5059794;28;20045;-72
2023/05/13 10:50:36;;;;;;;9.15;7.10;;;;;;;22.67;55.43;102221.31;5041725;28;20050;-73
2023/05/13 10:53:08;;;;;;;14.80;7.13;;;;;;;22.74;56.36;102219.22;5046540;28;20082;-72
2023/05/13 10:55:40;;;;;;;11.80;6.82;;;;;;;23.02;54.79;102219.34;5057024;28;20067;-72
2023/05/13 10:58:11;;;;;;;10.73;6.53;;;;;;;23.02;53.66;102216.53;5042453;28;20040;-72
2023/05/13 11:00:38;;;;;;;14.00;6.43;;;;;;;23.07;52.26;102226.97;5036850;28;20021;-73
2023/05/13 11:03:16;;;;;;;12.98;6.30;;;;;;;23.21;52.54;102222.88;5060591;28;20025;-73
2023/05/13 11:05:57;;;;;;;9.48;6.53;;;;;;;23.11;54.31;102226.22;5045457;28;20028;-72